createdAt,value
2018-12-25T00:00:15.652Z,1027.53
2018-12-25T00:00:51.069Z,1027.60
2018-12-25T00:01:26.106Z,1027.57
2018-12-25T00:02:01.523Z,1027.60
2018-12-25T00:02:36.607Z,1027.62
2018-12-25T00:03:12.309Z,1027.67
2018-12-25T00:04:07.483Z,1027.67
2018-12-25T00:04:42.883Z,1027.62
2018-12-25T00:05:18.235Z,1027.62
2018-12-25T00:05:53.636Z,1027.69
2018-12-25T00:06:28.923Z,1027.66
2018-12-25T00:07:04.040Z,1027.67
2018-12-25T00:07:39.336Z,1027.65
2018-12-25T00:08:14.851Z,1027.68
2018-12-25T00:08:50.428Z,1027.66
2018-12-25T00:09:25.754Z,1027.68
2018-12-25T00:10:01.495Z,1027.65
2018-12-25T00:10:36.795Z,1027.67
2018-12-25T00:11:12.214Z,1027.61
2018-12-25T00:11:47.698Z,1027.63
2018-12-25T00:12:23.306Z,1027.60
2018-12-25T00:12:58.922Z,1027.63
2018-12-25T00:13:34.296Z,1027.62
2018-12-25T00:14:09.514Z,1027.58
2018-12-25T00:14:44.711Z,1027.60
2018-12-25T00:15:20.149Z,1027.50
2018-12-25T00:15:55.659Z,1027.58
2018-12-25T00:16:31.346Z,1027.58
2018-12-25T00:17:06.652Z,1027.63
2018-12-25T00:17:41.939Z,1027.56
2018-12-25T00:18:17.444Z,1027.61
2018-12-25T00:18:52.833Z,1027.61
2018-12-25T00:19:28.644Z,1027.57
2018-12-25T00:20:03.857Z,1027.59
2018-12-25T00:20:39.273Z,1027.61
2018-12-25T00:21:14.578Z,1027.58
2018-12-25T00:21:49.974Z,1027.57
2018-12-25T00:22:24.978Z,1027.56
2018-12-25T00:23:00.289Z,1027.58
2018-12-25T00:23:35.569Z,1027.55
2018-12-25T00:24:10.785Z,1027.56
2018-12-25T00:24:46.063Z,1027.58
2018-12-25T00:25:21.303Z,1027.58
2018-12-25T00:25:56.498Z,1027.59
2018-12-25T00:26:31.871Z,1027.58
2018-12-25T00:27:07.285Z,1027.63
2018-12-25T00:27:42.484Z,1027.62
2018-12-25T00:28:17.805Z,1027.64
2018-12-25T00:28:53.093Z,1027.60
2018-12-25T00:29:28.619Z,1027.63
2018-12-25T00:30:04.272Z,1027.65
2018-12-25T00:30:39.656Z,1027.66
2018-12-25T00:31:14.879Z,1027.60
2018-12-25T00:31:50.375Z,1027.65
2018-12-25T00:32:25.694Z,1027.65
2018-12-25T00:33:00.988Z,1027.69
2018-12-25T00:33:36.605Z,1027.68
2018-12-25T00:34:12.020Z,1027.66
2018-12-25T00:34:47.601Z,1027.69
2018-12-25T00:35:23.231Z,1027.71
2018-12-25T00:35:58.725Z,1027.73
2018-12-25T00:36:33.957Z,1027.69
2018-12-25T00:37:09.081Z,1027.76
2018-12-25T00:37:44.276Z,1027.72
2018-12-25T00:38:19.903Z,1027.77
2018-12-25T00:38:55.196Z,1027.75
2018-12-25T00:39:30.622Z,1027.73
2018-12-25T00:40:06.069Z,1027.77
2018-12-25T00:40:41.453Z,1027.77
2018-12-25T00:41:16.668Z,1027.77
2018-12-25T00:41:51.960Z,1027.75
2018-12-25T00:42:27.541Z,1027.76
2018-12-25T00:43:02.758Z,1027.71
2018-12-25T00:43:37.942Z,1027.73
2018-12-25T00:44:13.441Z,1027.76
2018-12-25T00:44:48.658Z,1027.75
2018-12-25T00:45:24.073Z,1027.73
2018-12-25T00:45:59.253Z,1027.72
2018-12-25T00:46:34.564Z,1027.77
2018-12-25T00:47:10.018Z,1027.75
2018-12-25T00:47:45.189Z,1027.75
2018-12-25T00:48:20.887Z,1027.74
2018-12-25T00:48:56.166Z,1027.74
2018-12-25T00:49:31.463Z,1027.76
2018-12-25T00:50:06.523Z,1027.78
2018-12-25T00:50:41.810Z,1027.74
2018-12-25T00:51:17.230Z,1027.72
2018-12-25T00:51:52.546Z,1027.76
2018-12-25T00:52:27.966Z,1027.73
2018-12-25T00:53:03.161Z,1027.74
2018-12-25T00:53:38.658Z,1027.76
2018-12-25T00:54:14.064Z,1027.77
2018-12-25T00:54:49.468Z,1027.83
2018-12-25T00:55:24.693Z,1027.81
2018-12-25T00:56:00.381Z,1027.83
2018-12-25T00:56:35.888Z,1027.84
2018-12-25T00:57:11.392Z,1027.84
2018-12-25T00:57:46.486Z,1027.83
2018-12-25T00:58:22.029Z,1027.85
2018-12-25T00:58:57.218Z,1027.87
2018-12-25T00:59:32.822Z,1027.83
2018-12-25T01:00:08.236Z,1027.82
2018-12-25T01:00:43.567Z,1027.84
2018-12-25T01:01:19.083Z,1027.85
2018-12-25T01:01:54.380Z,1027.84
2018-12-25T01:02:29.781Z,1027.85
2018-12-25T01:03:05.391Z,1027.84
2018-12-25T01:03:40.688Z,1027.88
2018-12-25T01:04:16.108Z,1027.87
2018-12-25T01:04:51.296Z,1027.86
2018-12-25T01:05:26.922Z,1027.84
2018-12-25T01:06:02.333Z,1027.90
2018-12-25T01:06:37.627Z,1027.84
2018-12-25T01:07:12.846Z,1027.83
2018-12-25T01:07:48.135Z,1027.84
2018-12-25T01:08:23.535Z,1027.81
2018-12-25T01:08:58.932Z,1027.85
2018-12-25T01:09:34.143Z,1027.85
2018-12-25T01:10:09.622Z,1027.81
2018-12-25T01:10:44.920Z,1027.78
2018-12-25T01:11:20.466Z,1027.82
2018-12-25T01:11:56.170Z,1027.81
2018-12-25T01:12:31.476Z,1027.81
2018-12-25T01:13:06.678Z,1027.80
2018-12-25T01:13:42.369Z,1027.80
2018-12-25T01:14:17.749Z,1027.78
2018-12-25T01:14:54.471Z,1027.77
2018-12-25T01:15:28.588Z,1027.79
2018-12-25T01:16:04.078Z,1027.75
2018-12-25T01:16:39.718Z,1027.71
2018-12-25T01:17:14.955Z,1027.74
2018-12-25T01:17:50.307Z,1027.74
2018-12-25T01:18:25.506Z,1027.75
2018-12-25T01:19:00.797Z,1027.75
2018-12-25T01:19:36.115Z,1027.77
2018-12-25T01:20:11.301Z,1027.75
2018-12-25T01:20:46.708Z,1027.74
2018-12-25T01:21:21.939Z,1027.77
2018-12-25T01:21:57.266Z,1027.75
2018-12-25T01:22:32.867Z,1027.76
2018-12-25T01:23:08.344Z,1027.80
2018-12-25T01:23:43.475Z,1027.75
2018-12-25T01:24:18.982Z,1027.77
2018-12-25T01:24:54.278Z,1027.75
2018-12-25T01:25:29.599Z,1027.77
2018-12-25T01:26:04.992Z,1027.77
2018-12-25T01:26:40.813Z,1027.75
2018-12-25T01:27:16.069Z,1027.76
2018-12-25T01:27:51.051Z,1027.79
2018-12-25T01:28:26.663Z,1027.77
2018-12-25T01:29:01.966Z,1027.79
2018-12-25T01:29:37.476Z,1027.78
2018-12-25T01:30:12.371Z,1027.74
2018-12-25T01:30:47.398Z,1027.75
2018-12-25T01:31:22.703Z,1027.75
2018-12-25T01:31:57.982Z,1027.74
2018-12-25T01:32:33.353Z,1027.74
2018-12-25T01:33:08.641Z,1027.75
2018-12-25T01:33:43.953Z,1027.69
2018-12-25T01:34:19.253Z,1027.73
2018-12-25T01:34:54.331Z,1027.71
2018-12-25T01:35:29.734Z,1027.73
2018-12-25T01:36:05.116Z,1027.72
2018-12-25T01:36:40.421Z,1027.73
2018-12-25T01:37:15.734Z,1027.72
2018-12-25T01:37:51.246Z,1027.74
2018-12-25T01:38:26.545Z,1027.76
2018-12-25T01:39:01.737Z,1027.73
2018-12-25T01:39:36.973Z,1027.77
2018-12-25T01:40:12.245Z,1027.80
2018-12-25T01:40:47.749Z,1027.82
2018-12-25T01:41:23.056Z,1027.80
2018-12-25T01:41:58.341Z,1027.82
2018-12-25T01:42:33.453Z,1027.82
2018-12-25T01:43:08.756Z,1027.82
2018-12-25T01:43:44.062Z,1027.82
2018-12-25T01:44:19.492Z,1027.79
2018-12-25T01:44:54.784Z,1027.80
2018-12-25T01:45:29.894Z,1027.82
2018-12-25T01:46:05.683Z,1027.83
2018-12-25T01:46:40.982Z,1027.81
2018-12-25T01:47:16.597Z,1027.81
2018-12-25T01:47:51.882Z,1027.84
2018-12-25T01:48:27.326Z,1027.84
2018-12-25T01:49:02.717Z,1027.83
2018-12-25T01:49:37.826Z,1027.81
2018-12-25T01:50:13.329Z,1027.82
2018-12-25T01:50:48.837Z,1027.87
2018-12-25T01:51:24.471Z,1027.82
2018-12-25T01:51:59.843Z,1027.81
2018-12-25T01:52:34.905Z,1027.85
2018-12-25T01:53:10.193Z,1027.85
2018-12-25T01:53:45.738Z,1027.87
2018-12-25T01:54:21.231Z,1027.82
2018-12-25T01:54:56.753Z,1027.88
2018-12-25T01:55:31.846Z,1027.85
2018-12-25T01:56:07.133Z,1027.85
2018-12-25T01:56:42.656Z,1027.86
2018-12-25T01:57:18.050Z,1027.85
2018-12-25T01:57:53.271Z,1027.87
2018-12-25T01:58:28.480Z,1027.89
2018-12-25T01:59:03.795Z,1027.90
2018-12-25T01:59:39.106Z,1027.95
2018-12-25T02:00:14.083Z,1027.97
2018-12-25T02:00:49.903Z,1027.99
2018-12-25T02:01:25.208Z,1027.98
2018-12-25T02:02:00.704Z,1027.95
2018-12-25T02:02:35.915Z,1028.01
2018-12-25T02:03:11.204Z,1028.00
2018-12-25T02:03:46.618Z,1028.00
2018-12-25T02:04:21.941Z,1028.01
2018-12-25T02:04:57.358Z,1028.05
2018-12-25T02:05:32.887Z,1028.05
2018-12-25T02:06:08.576Z,1028.05
2018-12-25T02:06:43.993Z,1028.04
2018-12-25T02:07:19.186Z,1028.02
2018-12-25T02:07:54.600Z,1028.08
2018-12-25T02:08:29.917Z,1028.05
2018-12-25T02:09:05.080Z,1028.05
2018-12-25T02:09:40.225Z,1028.04
2018-12-25T02:10:15.727Z,1028.08
2018-12-25T02:10:50.841Z,1028.10
2018-12-25T02:11:26.349Z,1028.13
2018-12-25T02:12:01.822Z,1028.07
2018-12-25T02:12:37.147Z,1028.08
2018-12-25T02:13:12.131Z,1028.08
2018-12-25T02:13:47.343Z,1028.06
2018-12-25T02:14:23.025Z,1028.07
2018-12-25T02:14:58.376Z,1028.05
2018-12-25T02:15:33.581Z,1028.06
2018-12-25T02:16:08.785Z,1028.06
2018-12-25T02:16:43.923Z,1028.11
2018-12-25T02:17:19.321Z,1028.06
2018-12-25T02:17:54.917Z,1028.06
2018-12-25T02:18:30.318Z,1028.06
2018-12-25T02:19:06.109Z,1028.04
2018-12-25T02:19:41.619Z,1028.03
2018-12-25T02:20:16.959Z,1028.04
2018-12-25T02:20:52.170Z,1028.06
2018-12-25T02:21:27.179Z,1028.03
2018-12-25T02:22:02.466Z,1028.00
2018-12-25T02:22:37.677Z,1027.97
2018-12-25T02:23:12.960Z,1027.95
2018-12-25T02:23:48.260Z,1027.94
2018-12-25T02:24:23.772Z,1027.99
2018-12-25T02:24:59.046Z,1027.95
2018-12-25T02:25:34.290Z,1027.94
2018-12-25T02:26:09.405Z,1027.98
2018-12-25T02:26:45.011Z,1027.96
2018-12-25T02:27:20.522Z,1027.98
2018-12-25T02:27:56.126Z,1027.95
2018-12-25T02:28:31.429Z,1028.01
2018-12-25T02:29:06.852Z,1028.02
2018-12-25T02:29:42.250Z,1027.96
2018-12-25T02:30:18.069Z,1027.92
2018-12-25T02:30:53.812Z,1027.93
2018-12-25T02:31:29.201Z,1027.88
2018-12-25T02:32:04.519Z,1027.90
2018-12-25T02:32:39.607Z,1027.90
2018-12-25T02:33:15.215Z,1027.88
2018-12-25T02:33:50.397Z,1027.88
2018-12-25T02:34:25.612Z,1027.84
2018-12-25T02:35:00.581Z,1027.85
2018-12-25T02:35:36.075Z,1027.83
2018-12-25T02:36:11.398Z,1027.83
2018-12-25T02:36:46.725Z,1027.76
2018-12-25T02:37:22.217Z,1027.81
2018-12-25T02:37:57.494Z,1027.81
2018-12-25T02:38:32.718Z,1027.80
2018-12-25T02:39:08.112Z,1027.79
2018-12-25T02:39:43.804Z,1027.81
2018-12-25T02:40:19.104Z,1027.84
2018-12-25T02:40:54.817Z,1027.76
2018-12-25T02:41:30.114Z,1027.77
2018-12-25T02:42:05.114Z,1027.83
2018-12-25T02:42:40.207Z,1027.86
2018-12-25T02:43:15.515Z,1027.87
2018-12-25T02:43:51.020Z,1027.84
2018-12-25T02:44:26.407Z,1027.84
2018-12-25T02:45:01.828Z,1027.84
2018-12-25T02:45:37.099Z,1027.82
2018-12-25T02:46:12.318Z,1027.83
2018-12-25T02:46:48.158Z,1027.82
2018-12-25T02:47:23.253Z,1027.83
2018-12-25T02:47:58.636Z,1027.83
2018-12-25T02:48:33.918Z,1027.79
2018-12-25T02:49:09.337Z,1027.76
2018-12-25T02:49:50.200Z,1027.79
2018-12-25T02:50:19.918Z,1027.73
2018-12-25T02:50:55.299Z,1027.76
2018-12-25T02:51:30.607Z,1027.69
2018-12-25T02:52:05.717Z,1027.67
2018-12-25T02:52:41.234Z,1027.67
2018-12-25T02:53:16.424Z,1027.69
2018-12-25T02:53:51.749Z,1027.73
2018-12-25T02:54:26.939Z,1027.71
2018-12-25T02:55:02.030Z,1027.67
2018-12-25T02:55:37.349Z,1027.68
2018-12-25T02:56:12.713Z,1027.65
2018-12-25T02:56:48.326Z,1027.66
2018-12-25T02:57:23.534Z,1027.66
2018-12-25T02:57:59.325Z,1027.64
2018-12-25T02:58:34.508Z,1027.65
2018-12-25T02:59:09.764Z,1027.61
2018-12-25T02:59:45.024Z,1027.58
2018-12-25T03:00:20.338Z,1027.61
2018-12-25T03:00:55.839Z,1027.62
2018-12-25T03:01:31.226Z,1027.62
2018-12-25T03:02:06.436Z,1027.61
2018-12-25T03:02:41.641Z,1027.57
2018-12-25T03:03:17.054Z,1027.62
2018-12-25T03:03:52.584Z,1027.65
2018-12-25T03:04:27.902Z,1027.62
2018-12-25T03:05:03.204Z,1027.58
2018-12-25T03:05:38.508Z,1027.60
2018-12-25T03:06:14.686Z,1027.58
2018-12-25T03:06:50.185Z,1027.58
2018-12-25T03:07:25.563Z,1027.61
2018-12-25T03:08:00.687Z,1027.60
2018-12-25T03:08:35.796Z,1027.60
2018-12-25T03:09:11.177Z,1027.59
2018-12-25T03:09:46.375Z,1027.62
2018-12-25T03:10:21.541Z,1027.61
2018-12-25T03:10:56.647Z,1027.64
2018-12-25T03:11:32.158Z,1027.65
2018-12-25T03:12:07.470Z,1027.70
2018-12-25T03:12:42.771Z,1027.67
2018-12-25T03:13:18.212Z,1027.68
2018-12-25T03:13:53.534Z,1027.68
2018-12-25T03:14:28.819Z,1027.68
2018-12-25T03:15:04.332Z,1027.70
2018-12-25T03:15:39.707Z,1027.69
2018-12-25T03:16:15.025Z,1027.66
2018-12-25T03:16:50.112Z,1027.66
2018-12-25T03:17:25.513Z,1027.68
2018-12-25T03:18:00.803Z,1027.66
2018-12-25T03:18:36.547Z,1027.63
2018-12-25T03:19:12.124Z,1027.58
2018-12-25T03:19:47.633Z,1027.59
2018-12-25T03:20:22.937Z,1027.52
2018-12-25T03:20:58.518Z,1027.52
2018-12-25T03:21:33.934Z,1027.50
2018-12-25T03:22:09.123Z,1027.49
2018-12-25T03:22:44.419Z,1027.43
2018-12-25T03:23:19.709Z,1027.42
2018-12-25T03:23:54.947Z,1027.42
2018-12-25T03:24:30.235Z,1027.40
2018-12-25T03:25:05.830Z,1027.41
2018-12-25T03:25:40.830Z,1027.40
2018-12-25T03:26:15.944Z,1027.45
2018-12-25T03:26:51.743Z,1027.43
2018-12-25T03:27:26.633Z,1027.41
2018-12-25T03:28:02.139Z,1027.40
2018-12-25T03:28:37.521Z,1027.34
2018-12-25T03:29:12.857Z,1027.35
2018-12-25T03:29:48.039Z,1027.38
2018-12-25T03:30:23.574Z,1027.36
2018-12-25T03:30:59.248Z,1027.35
2018-12-25T03:31:34.448Z,1027.39
2018-12-25T03:32:09.634Z,1027.40
2018-12-25T03:32:45.313Z,1027.38
2018-12-25T03:33:20.739Z,1027.38
2018-12-25T03:33:55.911Z,1027.38
2018-12-25T03:34:31.751Z,1027.45
2018-12-25T03:35:07.412Z,1027.40
2018-12-25T03:35:43.116Z,1027.40
2018-12-25T03:36:18.497Z,1027.40
2018-12-25T03:36:53.595Z,1027.36
2018-12-25T03:37:28.799Z,1027.37
2018-12-25T03:38:04.188Z,1027.39
2018-12-25T03:38:39.304Z,1027.36
2018-12-25T03:39:14.384Z,1027.35
2018-12-25T03:39:49.939Z,1027.41
2018-12-25T03:40:25.227Z,1027.36
2018-12-25T03:41:00.536Z,1027.39
2018-12-25T03:41:35.789Z,1027.40
2018-12-25T03:42:11.208Z,1027.37
2018-12-25T03:42:46.824Z,1027.33
2018-12-25T03:43:22.112Z,1027.34
2018-12-25T03:43:57.521Z,1027.34
2018-12-25T03:44:32.830Z,1027.32
2018-12-25T03:45:08.285Z,1027.30
2018-12-25T03:45:43.563Z,1027.31
2018-12-25T03:46:19.085Z,1027.28
2018-12-25T03:46:54.580Z,1027.32
2018-12-25T03:47:29.869Z,1027.34
2018-12-25T03:48:05.045Z,1027.33
2018-12-25T03:48:40.341Z,1027.31
2018-12-25T03:49:15.459Z,1027.30
2018-12-25T03:49:51.451Z,1027.35
2018-12-25T03:50:26.885Z,1027.34
2018-12-25T03:51:02.360Z,1027.33
2018-12-25T03:51:37.704Z,1027.32
2018-12-25T03:52:13.084Z,1027.32
2018-12-25T03:52:48.501Z,1027.33
2018-12-25T03:53:23.991Z,1027.34
2018-12-25T03:53:59.504Z,1027.29
2018-12-25T03:54:34.625Z,1027.29
2018-12-25T03:55:10.211Z,1027.27
2018-12-25T03:55:45.645Z,1027.27
2018-12-25T03:56:21.048Z,1027.22
2018-12-25T03:56:56.653Z,1027.28
2018-12-25T03:57:31.951Z,1027.25
2018-12-25T03:58:07.349Z,1027.31
2018-12-25T03:58:42.822Z,1027.28
2018-12-25T03:59:18.043Z,1027.29
2018-12-25T03:59:53.408Z,1027.28
2018-12-25T04:00:28.907Z,1027.25
2018-12-25T04:01:04.154Z,1027.29
2018-12-25T04:01:39.523Z,1027.31
2018-12-25T04:02:14.761Z,1027.32
2018-12-25T04:02:50.035Z,1027.26
2018-12-25T04:03:25.541Z,1027.26
2018-12-25T04:04:00.939Z,1027.27
2018-12-25T04:04:36.469Z,1027.26
2018-12-25T04:05:11.643Z,1027.29
2018-12-25T04:05:47.055Z,1027.27
2018-12-25T04:06:22.293Z,1027.27
2018-12-25T04:06:57.802Z,1027.31
2018-12-25T04:07:32.933Z,1027.32
2018-12-25T04:08:08.223Z,1027.28
2018-12-25T04:08:43.829Z,1027.35
2018-12-25T04:09:19.010Z,1027.36
2018-12-25T04:09:54.516Z,1027.32
2018-12-25T04:10:30.195Z,1027.31
2018-12-25T04:11:05.604Z,1027.32
2018-12-25T04:11:41.044Z,1027.35
2018-12-25T04:12:16.643Z,1027.34
2018-12-25T04:12:51.872Z,1027.33
2018-12-25T04:13:27.160Z,1027.30
2018-12-25T04:14:02.249Z,1027.33
2018-12-25T04:14:37.335Z,1027.32
2018-12-25T04:15:13.238Z,1027.34
2018-12-25T04:15:48.522Z,1027.33
2018-12-25T04:16:23.842Z,1027.34
2018-12-25T04:16:59.286Z,1027.36
2018-12-25T04:17:34.657Z,1027.35
2018-12-25T04:18:10.437Z,1027.37
2018-12-25T04:18:45.621Z,1027.38
2018-12-25T04:19:20.913Z,1027.41
2018-12-25T04:19:56.242Z,1027.42
2018-12-25T04:20:31.557Z,1027.39
2018-12-25T04:21:06.838Z,1027.39
2018-12-25T04:21:42.542Z,1027.36
2018-12-25T04:22:17.763Z,1027.36
2018-12-25T04:22:53.068Z,1027.31
2018-12-25T04:23:28.350Z,1027.36
2018-12-25T04:24:03.677Z,1027.34
2018-12-25T04:24:38.970Z,1027.35
2018-12-25T04:25:14.560Z,1027.33
2018-12-25T04:25:49.785Z,1027.34
2018-12-25T04:26:25.268Z,1027.37
2018-12-25T04:27:00.463Z,1027.33
2018-12-25T04:27:36.090Z,1027.31
2018-12-25T04:28:11.513Z,1027.31
2018-12-25T04:28:46.794Z,1027.33
2018-12-25T04:29:21.991Z,1027.30
2018-12-25T04:29:57.314Z,1027.30
2018-12-25T04:30:32.477Z,1027.30
2018-12-25T04:31:07.819Z,1027.27
2018-12-25T04:31:43.204Z,1027.28
2018-12-25T04:32:18.215Z,1027.24
2018-12-25T04:32:53.744Z,1027.25
2018-12-25T04:33:28.942Z,1027.30
2018-12-25T04:34:04.421Z,1027.30
2018-12-25T04:34:39.724Z,1027.33
2018-12-25T04:35:15.238Z,1027.31
2018-12-25T04:35:50.719Z,1027.30
2018-12-25T04:36:26.049Z,1027.31
2018-12-25T04:37:01.310Z,1027.32
2018-12-25T04:37:36.500Z,1027.31
2018-12-25T04:38:11.914Z,1027.28
2018-12-25T04:38:47.315Z,1027.30
2018-12-25T04:39:22.702Z,1027.32
2018-12-25T04:39:58.412Z,1027.28
2018-12-25T04:40:33.500Z,1027.32
2018-12-25T04:41:08.705Z,1027.27
2018-12-25T04:41:44.303Z,1027.30
2018-12-25T04:42:19.787Z,1027.25
2018-12-25T04:42:55.110Z,1027.33
2018-12-25T04:43:30.444Z,1027.31
2018-12-25T04:44:05.935Z,1027.35
2018-12-25T04:44:41.527Z,1027.33
2018-12-25T04:45:16.636Z,1027.30
2018-12-25T04:45:51.819Z,1027.33
2018-12-25T04:46:27.428Z,1027.30
2018-12-25T04:47:02.834Z,1027.32
2018-12-25T04:47:38.327Z,1027.35
2018-12-25T04:48:13.421Z,1027.33
2018-12-25T04:48:48.739Z,1027.34
2018-12-25T04:49:24.257Z,1027.35
2018-12-25T04:49:59.927Z,1027.31
2018-12-25T04:50:35.139Z,1027.30
2018-12-25T04:51:10.822Z,1027.32
2018-12-25T04:51:46.558Z,1027.29
2018-12-25T04:52:22.067Z,1027.29
2018-12-25T04:52:57.254Z,1027.32
2018-12-25T04:53:32.652Z,1027.31
2018-12-25T04:54:07.869Z,1027.30
2018-12-25T04:54:43.179Z,1027.29
2018-12-25T04:55:18.475Z,1027.27
2018-12-25T04:55:54.902Z,1027.23
2018-12-25T04:56:30.185Z,1027.24
2018-12-25T04:57:05.429Z,1027.21
2018-12-25T04:57:40.763Z,1027.24
2018-12-25T04:58:15.848Z,1027.21
2018-12-25T04:58:51.256Z,1027.24
2018-12-25T04:59:26.560Z,1027.27
2018-12-25T05:00:01.797Z,1027.27
2018-12-25T05:00:37.073Z,1027.27
2018-12-25T05:01:12.792Z,1027.27
2018-12-25T05:01:47.985Z,1027.30
2018-12-25T05:02:26.498Z,1027.33
2018-12-25T05:03:01.810Z,1027.30
2018-12-25T05:03:37.088Z,1027.35
2018-12-25T05:04:12.606Z,1027.29
2018-12-25T05:04:47.911Z,1027.29
2018-12-25T05:05:23.208Z,1027.32
2018-12-25T05:05:59.005Z,1027.30
2018-12-25T05:06:34.121Z,1027.29
2018-12-25T05:07:09.608Z,1027.34
2018-12-25T05:07:44.916Z,1027.32
2018-12-25T05:08:20.521Z,1027.33
2018-12-25T05:08:55.811Z,1027.36
2018-12-25T05:09:31.042Z,1027.35
2018-12-25T05:10:06.769Z,1027.32
2018-12-25T05:10:42.176Z,1027.31
2018-12-25T05:11:17.567Z,1027.33
2018-12-25T05:11:53.379Z,1027.37
2018-12-25T05:12:28.489Z,1027.38
2018-12-25T05:13:03.593Z,1027.34
2018-12-25T05:13:38.787Z,1027.37
2018-12-25T05:14:14.179Z,1027.35
2018-12-25T05:14:49.405Z,1027.38
2018-12-25T05:15:25.138Z,1027.35
2018-12-25T05:16:00.546Z,1027.39
2018-12-25T05:16:36.179Z,1027.41
2018-12-25T05:17:11.584Z,1027.39
2018-12-25T05:17:46.976Z,1027.36
2018-12-25T05:18:22.074Z,1027.41
2018-12-25T05:18:57.555Z,1027.36
2018-12-25T05:19:32.961Z,1027.33
2018-12-25T05:20:08.204Z,1027.37
2018-12-25T05:20:43.624Z,1027.31
2018-12-25T05:21:18.945Z,1027.32
2018-12-25T05:21:54.522Z,1027.30
2018-12-25T05:22:29.830Z,1027.30
2018-12-25T05:23:05.135Z,1027.33
2018-12-25T05:23:40.446Z,1027.32
2018-12-25T05:24:15.745Z,1027.27
2018-12-25T05:24:50.954Z,1027.28
2018-12-25T05:25:26.418Z,1027.31
2018-12-25T05:26:01.871Z,1027.31
2018-12-25T05:26:37.467Z,1027.36
2018-12-25T05:27:12.645Z,1027.35
2018-12-25T05:27:47.846Z,1027.38
2018-12-25T05:28:23.228Z,1027.41
2018-12-25T05:28:58.845Z,1027.38
2018-12-25T05:29:34.164Z,1027.36
2018-12-25T05:30:09.348Z,1027.33
2018-12-25T05:30:44.846Z,1027.35
2018-12-25T05:31:20.446Z,1027.34
2018-12-25T05:31:55.661Z,1027.35
2018-12-25T05:32:30.959Z,1027.37
2018-12-25T05:33:06.544Z,1027.38
2018-12-25T05:33:42.049Z,1027.42
2018-12-25T05:34:17.264Z,1027.40
2018-12-25T05:34:52.555Z,1027.35
2018-12-25T05:35:27.858Z,1027.37
2018-12-25T05:36:03.140Z,1027.37
2018-12-25T05:36:38.272Z,1027.41
2018-12-25T05:37:13.903Z,1027.39
2018-12-25T05:37:49.086Z,1027.39
2018-12-25T05:38:24.207Z,1027.39
2018-12-25T05:38:59.493Z,1027.38
2018-12-25T05:39:34.899Z,1027.39
2018-12-25T05:40:10.480Z,1027.40
2018-12-25T05:40:45.715Z,1027.45
2018-12-25T05:41:21.098Z,1027.39
2018-12-25T05:41:56.730Z,1027.41
2018-12-25T05:42:32.054Z,1027.41
2018-12-25T05:43:07.621Z,1027.42
2018-12-25T05:43:42.934Z,1027.33
2018-12-25T05:44:18.220Z,1027.37
2018-12-25T05:44:53.525Z,1027.36
2018-12-25T05:45:28.910Z,1027.36
2018-12-25T05:46:04.209Z,1027.37
2018-12-25T05:46:39.399Z,1027.39
2018-12-25T05:47:14.743Z,1027.43
2018-12-25T05:47:50.312Z,1027.38
2018-12-25T05:48:25.741Z,1027.36
2018-12-25T05:49:01.139Z,1027.31
2018-12-25T05:49:36.522Z,1027.32
2018-12-25T05:50:11.719Z,1027.36
2018-12-25T05:50:47.203Z,1027.31
2018-12-25T05:51:22.406Z,1027.35
2018-12-25T05:51:57.399Z,1027.39
2018-12-25T05:52:32.834Z,1027.39
2018-12-25T05:53:08.108Z,1027.42
2018-12-25T05:53:43.322Z,1027.45
2018-12-25T05:54:18.428Z,1027.47
2018-12-25T05:54:53.922Z,1027.50
2018-12-25T05:55:29.522Z,1027.44
2018-12-25T05:56:04.813Z,1027.50
2018-12-25T05:56:40.125Z,1027.48
2018-12-25T05:57:15.405Z,1027.48
2018-12-25T05:57:51.074Z,1027.42
2018-12-25T05:58:26.762Z,1027.46
2018-12-25T05:59:01.865Z,1027.52
2018-12-25T05:59:37.273Z,1027.56
2018-12-25T06:00:12.856Z,1027.55
2018-12-25T06:00:48.167Z,1027.52
2018-12-25T06:01:23.444Z,1027.48
2018-12-25T06:01:58.758Z,1027.49
2018-12-25T06:02:34.040Z,1027.46
2018-12-25T06:03:09.692Z,1027.50
2018-12-25T06:03:44.991Z,1027.45
2018-12-25T06:04:20.703Z,1027.50
2018-12-25T06:04:56.089Z,1027.50
2018-12-25T06:05:31.297Z,1027.50
2018-12-25T06:06:06.618Z,1027.56
2018-12-25T06:06:42.022Z,1027.53
2018-12-25T06:07:17.749Z,1027.59
2018-12-25T06:07:53.130Z,1027.58
2018-12-25T06:08:28.681Z,1027.59
2018-12-25T06:09:04.267Z,1027.55
2018-12-25T06:09:39.717Z,1027.50
2018-12-25T06:10:15.115Z,1027.51
2018-12-25T06:10:50.215Z,1027.43
2018-12-25T06:11:25.614Z,1027.45
2018-12-25T06:12:00.910Z,1027.46
2018-12-25T06:12:36.423Z,1027.38
2018-12-25T06:13:11.505Z,1027.45
2018-12-25T06:13:46.747Z,1027.43
2018-12-25T06:14:22.123Z,1027.42
2018-12-25T06:14:57.524Z,1027.45
2018-12-25T06:15:32.817Z,1027.46
2018-12-25T06:16:07.932Z,1027.45
2018-12-25T06:16:43.372Z,1027.43
2018-12-25T06:17:18.754Z,1027.42
2018-12-25T06:17:53.960Z,1027.40
2018-12-25T06:18:29.353Z,1027.46
2018-12-25T06:19:04.575Z,1027.47
2018-12-25T06:19:39.853Z,1027.45
2018-12-25T06:20:15.248Z,1027.51
2018-12-25T06:20:55.033Z,1027.51
2018-12-25T06:21:25.943Z,1027.47
2018-12-25T06:22:01.209Z,1027.51
2018-12-25T06:22:36.823Z,1027.44
2018-12-25T06:23:12.149Z,1027.49
2018-12-25T06:23:47.442Z,1027.51
2018-12-25T06:24:22.969Z,1027.54
2018-12-25T06:24:58.379Z,1027.61
2018-12-25T06:25:33.574Z,1027.57
2018-12-25T06:26:08.857Z,1027.58
2018-12-25T06:26:44.457Z,1027.51
2018-12-25T06:27:19.435Z,1027.55
2018-12-25T06:27:54.443Z,1027.50
2018-12-25T06:28:29.946Z,1027.50
2018-12-25T06:29:05.320Z,1027.49
2018-12-25T06:29:40.960Z,1027.52
2018-12-25T06:30:16.148Z,1027.51
2018-12-25T06:30:51.273Z,1027.51
2018-12-25T06:31:26.621Z,1027.52
2018-12-25T06:32:01.773Z,1027.47
2018-12-25T06:32:37.057Z,1027.50
2018-12-25T06:33:12.300Z,1027.52
2018-12-25T06:33:47.990Z,1027.51
2018-12-25T06:34:23.382Z,1027.51
2018-12-25T06:34:58.845Z,1027.54
2018-12-25T06:35:34.260Z,1027.52
2018-12-25T06:36:09.768Z,1027.51
2018-12-25T06:36:45.247Z,1027.52
2018-12-25T06:37:20.954Z,1027.53
2018-12-25T06:37:56.124Z,1027.50
2018-12-25T06:38:31.487Z,1027.50
2018-12-25T06:39:06.666Z,1027.48
2018-12-25T06:39:41.971Z,1027.46
2018-12-25T06:40:17.308Z,1027.51
2018-12-25T06:40:52.583Z,1027.47
2018-12-25T06:41:27.894Z,1027.46
2018-12-25T06:42:03.278Z,1027.48
2018-12-25T06:42:38.685Z,1027.46
2018-12-25T06:43:14.175Z,1027.45
2018-12-25T06:43:49.382Z,1027.43
2018-12-25T06:44:24.783Z,1027.42
2018-12-25T06:45:03.310Z,1027.39
2018-12-25T06:45:38.755Z,1027.41
2018-12-25T06:46:14.136Z,1027.41
2018-12-25T06:46:49.742Z,1027.37
2018-12-25T06:47:25.222Z,1027.38
2018-12-25T06:48:00.529Z,1027.35
2018-12-25T06:48:36.013Z,1027.38
2018-12-25T06:49:11.017Z,1027.38
2018-12-25T06:49:46.306Z,1027.35
2018-12-25T06:50:21.511Z,1027.39
2018-12-25T06:51:03.535Z,1027.32
2018-12-25T06:51:31.944Z,1027.35
2018-12-25T06:52:07.617Z,1027.35
2018-12-25T06:52:43.126Z,1027.34
2018-12-25T06:53:18.630Z,1027.34
2018-12-25T06:53:53.937Z,1027.36
2018-12-25T06:54:29.238Z,1027.33
2018-12-25T06:55:04.613Z,1027.32
2018-12-25T06:55:40.124Z,1027.26
2018-12-25T06:56:15.476Z,1027.29
2018-12-25T06:56:50.959Z,1027.23
2018-12-25T06:57:26.368Z,1027.24
2018-12-25T06:58:01.749Z,1027.22
2018-12-25T06:58:37.053Z,1027.22
2018-12-25T06:59:12.530Z,1027.22
2018-12-25T06:59:47.836Z,1027.24
2018-12-25T07:00:23.227Z,1027.20
2018-12-25T07:00:58.621Z,1027.19
2018-12-25T07:01:33.864Z,1027.22
2018-12-25T07:02:09.248Z,1027.19
2018-12-25T07:02:44.463Z,1027.15
2018-12-25T07:03:19.645Z,1027.17
2018-12-25T07:03:54.851Z,1027.20
2018-12-25T07:04:30.027Z,1027.20
2018-12-25T07:05:05.439Z,1027.20
2018-12-25T07:05:40.924Z,1027.23
2018-12-25T07:06:16.233Z,1027.18
2018-12-25T07:06:51.448Z,1027.20
2018-12-25T07:07:26.866Z,1027.18
2018-12-25T07:08:02.352Z,1027.16